createdAt,value
2024-05-09T00:03:06.995Z,96
2024-05-09T00:07:49.089Z,96
2024-05-09T00:12:31.387Z,96.5
2024-05-09T00:17:13.755Z,97
2024-05-09T00:21:56.040Z,97.5
2024-05-09T00:26:38.292Z,98
2024-05-09T00:31:19.502Z,98
2024-05-09T00:36:01.799Z,98.5
2024-05-09T00:40:44.151Z,98.5
2024-05-09T00:45:26.419Z,99
2024-05-09T00:50:08.621Z,99.5
2024-05-09T00:54:50.926Z,99.5
2024-05-09T00:59:33.220Z,99.5
2024-05-09T01:04:14.545Z,99.5
2024-05-09T01:08:56.871Z,99.5
2024-05-09T01:13:39.062Z,99.5
2024-05-09T01:18:20.343Z,99.5
2024-05-09T01:27:44.946Z,99.5
2024-05-09T01:32:27.271Z,99.5
2024-05-09T01:37:09.450Z,99.5
2024-05-09T01:41:51.754Z,99.5
2024-05-09T01:46:34.096Z,99.5
2024-05-09T01:51:16.362Z,99.5
2024-05-09T01:55:58.668Z,99.5
2024-05-09T02:00:40.867Z,99.5
2024-05-09T02:05:23.187Z,99.5
2024-05-09T02:10:05.478Z,99.5
2024-05-09T02:14:47.784Z,99.5
2024-05-09T02:19:28.979Z,99.5
2024-05-09T02:24:11.293Z,99.5
2024-05-09T02:28:53.960Z,99.5
2024-05-09T02:33:35.893Z,99.5
2024-05-09T02:38:18.201Z,99.5
2024-05-09T02:43:00.415Z,99.5
2024-05-09T02:47:42.712Z,99.5
2024-05-09T02:52:25.010Z,99.5
2024-05-09T02:57:07.310Z,99.5
2024-05-09T03:06:31.815Z,99.5
2024-05-09T03:11:14.133Z,99.5
2024-05-09T03:15:56.430Z,99.5
2024-05-09T03:20:38.640Z,99.5
2024-05-09T03:25:19.941Z,99.5
2024-05-09T03:30:02.242Z,99.5
2024-05-09T03:34:44.593Z,99.5
2024-05-09T03:39:26.845Z,99.5
2024-05-09T03:48:51.351Z,99.5
2024-05-09T03:53:33.683Z,99.5
2024-05-09T03:58:16.001Z,99.5
2024-05-09T04:02:58.259Z,99.5
2024-05-09T04:07:40.466Z,99.5
2024-05-09T04:12:22.781Z,99.5
2024-05-09T04:17:05.064Z,99.5
2024-05-09T04:21:47.381Z,99.5
2024-05-09T04:26:28.681Z,99.5
2024-05-09T04:40:35.500Z,99.5
2024-05-09T04:45:16.812Z,99.5
2024-05-09T04:49:58.092Z,99.5
2024-05-09T04:54:40.398Z,99.5
2024-05-09T04:59:22.664Z,99.5
2024-05-09T05:04:04.907Z,99.5
2024-05-09T05:08:47.206Z,99.5
2024-05-09T05:13:28.671Z,99.5
2024-05-09T05:22:53.947Z,99.5
2024-05-09T05:27:35.319Z,99.5
2024-05-09T05:32:17.623Z,99
2024-05-09T05:36:59.945Z,98
2024-05-09T05:41:42.311Z,97
2024-05-09T05:46:24.499Z,96.5
2024-05-09T05:51:06.740Z,96.5
2024-05-09T05:55:49.047Z,95.5
2024-05-09T06:00:31.364Z,94
2024-05-09T06:09:55.968Z,90
2024-05-09T06:14:37.163Z,88
2024-05-09T06:24:00.766Z,84.5
2024-05-09T06:28:43.140Z,82.5
2024-05-09T06:33:25.480Z,81.5
2024-05-09T06:38:07.604Z,79.5
2024-05-09T06:42:49.883Z,78
2024-05-09T06:47:32.206Z,76
2024-05-09T07:01:39.003Z,70.5
2024-05-09T07:06:21.436Z,68.5
2024-05-09T07:11:03.816Z,67
2024-05-09T07:15:45.908Z,64.5
2024-05-09T07:20:28.143Z,63.5
2024-05-09T07:25:10.421Z,61.5
2024-05-09T07:29:52.750Z,60
2024-05-09T07:34:33.926Z,59
2024-05-09T07:39:16.267Z,55
2024-05-09T07:43:58.665Z,50.5
2024-05-09T07:48:40.831Z,50.5
2024-05-09T07:53:23.075Z,50
2024-05-09T07:58:05.350Z,50.5
2024-05-09T08:02:47.655Z,52
2024-05-09T08:07:29.959Z,51.5
2024-05-09T08:12:12.163Z,50
2024-05-09T08:16:54.471Z,48
2024-05-09T08:26:19.067Z,48
2024-05-09T08:31:01.744Z,47
2024-05-09T08:35:42.574Z,44
2024-05-09T08:40:23.997Z,42.5
2024-05-09T08:45:06.300Z,43
2024-05-09T08:49:48.620Z,42.5
2024-05-09T08:54:30.792Z,41.5
2024-05-09T08:59:13.005Z,41.5
2024-05-09T09:03:54.367Z,44
2024-05-09T09:08:36.613Z,43.5
2024-05-09T09:18:01.221Z,39.5
2024-05-09T09:22:43.432Z,39
2024-05-09T09:27:25.769Z,39.5
2024-05-09T09:32:08.040Z,38.5
2024-05-09T09:41:32.536Z,33.5
2024-05-09T09:46:14.834Z,35
2024-05-09T09:50:57.200Z,33.5
2024-05-09T09:55:38.467Z,32.5
2024-05-09T10:00:20.767Z,31.5
2024-05-09T10:09:44.261Z,31
2024-05-09T10:23:51.770Z,32.5
2024-05-09T10:28:33.414Z,30
2024-05-09T10:33:15.677Z,30
2024-05-09T10:37:58.009Z,31
2024-05-09T10:42:40.368Z,33.5
2024-05-09T10:47:22.499Z,33.5
2024-05-09T10:52:04.867Z,31.5
2024-05-09T10:56:47.104Z,31
2024-05-09T11:01:29.411Z,27.5
2024-05-09T11:06:11.789Z,25
2024-05-09T11:10:53.994Z,29
2024-05-09T11:15:36.217Z,35.5
2024-05-09T11:20:17.515Z,31.5
2024-05-09T11:24:59.829Z,31
2024-05-09T11:29:42.044Z,26.5
2024-05-09T11:34:24.487Z,26.5
2024-05-09T11:39:06.650Z,32
2024-05-09T11:43:48.934Z,30
2024-05-09T11:48:31.135Z,32
2024-05-09T11:53:13.498Z,33
2024-05-09T12:02:38.065Z,26.5
2024-05-09T12:07:20.261Z,23.5
2024-05-09T12:12:02.563Z,24
2024-05-09T12:16:43.892Z,23
2024-05-09T12:26:08.555Z,25
2024-05-09T12:30:50.776Z,28.5
2024-05-09T12:35:32.122Z,30
2024-05-09T12:40:14.291Z,26
2024-05-09T12:44:56.599Z,24.5
2024-05-09T12:49:38.956Z,22.5
2024-05-09T12:54:21.211Z,21
2024-05-09T12:59:04.221Z,21.5
2024-05-09T13:03:45.895Z,26
2024-05-09T13:17:52.612Z,25.5
2024-05-09T13:22:34.906Z,23
2024-05-09T13:27:17.211Z,23.5
2024-05-09T13:31:59.437Z,23
2024-05-09T13:36:41.720Z,22.5
2024-05-09T13:41:24.047Z,24.5
2024-05-09T13:46:05.339Z,28.5
2024-05-09T13:50:46.657Z,27
2024-05-09T14:00:11.135Z,23
2024-05-09T14:04:53.447Z,22.5
2024-05-09T14:09:35.739Z,20
2024-05-09T14:14:18.191Z,20.5
2024-05-09T14:23:42.557Z,20.5
2024-05-09T14:28:24.960Z,25
2024-05-09T14:33:07.229Z,29
2024-05-09T14:37:49.473Z,29.5
2024-05-09T14:42:31.668Z,31.5
2024-05-09T14:47:15.182Z,30
2024-05-09T14:51:56.288Z,28.5
2024-05-09T14:56:37.592Z,28.5
2024-05-09T15:01:19.904Z,24
2024-05-09T15:06:02.128Z,22
2024-05-09T15:10:44.408Z,21.5
2024-05-09T15:20:09.013Z,23
2024-05-09T15:24:51.216Z,24
2024-05-09T15:29:33.515Z,26
2024-05-09T15:34:15.871Z,27
2024-05-09T15:38:58.160Z,24.5
2024-05-09T15:43:40.344Z,23.5
2024-05-09T15:48:22.637Z,23.5
2024-05-09T15:53:04.940Z,21.5
2024-05-09T15:57:47.246Z,20
2024-05-09T16:02:29.456Z,22.5
2024-05-09T16:07:11.748Z,23
2024-05-09T16:11:53.068Z,23.5
2024-05-09T16:21:17.727Z,24.5
2024-05-09T16:26:00.042Z,26.5
2024-05-09T16:30:41.301Z,25
2024-05-09T16:35:23.509Z,25
2024-05-09T16:40:05.786Z,25.5
2024-05-09T16:44:48.095Z,24.5
2024-05-09T16:49:30.293Z,23
2024-05-09T16:54:12.607Z,22.5
2024-05-09T16:58:54.906Z,25
2024-05-09T17:08:19.414Z,24.5
2024-05-09T17:13:01.732Z,24.5
2024-05-09T17:17:43.019Z,25.5
2024-05-09T17:22:25.321Z,25
2024-05-09T17:27:07.674Z,25.5
2024-05-09T17:31:48.972Z,27.5
2024-05-09T17:36:31.238Z,29
2024-05-09T17:41:13.506Z,28.5
2024-05-09T17:45:55.868Z,30
2024-05-09T17:50:38.052Z,31.5
2024-05-09T17:55:20.290Z,32.5
2024-05-09T18:00:02.557Z,34.5
2024-05-09T18:04:43.931Z,35.5
2024-05-09T18:09:26.256Z,36.5
2024-05-09T18:14:08.505Z,37.5
2024-05-09T18:18:50.780Z,38
2024-05-09T18:23:33.042Z,39.5
2024-05-09T18:28:14.342Z,40.5
2024-05-09T18:32:56.585Z,42.5
2024-05-09T18:37:38.891Z,44
2024-05-09T18:42:21.097Z,45
2024-05-09T18:47:03.405Z,47
2024-05-09T18:51:44.708Z,48.5
2024-05-09T18:56:26.059Z,50
2024-05-09T19:01:08.309Z,52.5
2024-05-09T19:05:50.726Z,54
2024-05-09T19:10:32.807Z,55
2024-05-09T19:15:15.102Z,56.5
2024-05-09T19:19:57.415Z,57.5
2024-05-09T19:29:21.926Z,59
2024-05-09T19:34:04.221Z,59.5
2024-05-09T19:38:46.526Z,61.5
2024-05-09T19:43:28.982Z,62.5
2024-05-09T19:48:11.095Z,63.5
2024-05-09T19:52:53.342Z,64.5
2024-05-09T19:57:35.658Z,65.5
2024-05-09T20:02:17.955Z,66.5
2024-05-09T20:06:59.242Z,67.5
2024-05-09T20:16:23.814Z,69.5
2024-05-09T20:21:05.063Z,70
2024-05-09T20:25:46.448Z,70.5
2024-05-09T20:30:28.671Z,69.5
2024-05-09T20:35:10.971Z,70.5
2024-05-09T20:39:53.179Z,71.5
2024-05-09T20:44:35.492Z,73
2024-05-09T20:49:17.777Z,73.5
2024-05-09T20:54:00.086Z,74
2024-05-09T20:58:42.384Z,75
2024-05-09T21:03:23.689Z,75.5
2024-05-09T21:08:06.190Z,75.5
2024-05-09T21:12:47.376Z,75.5
2024-05-09T21:17:29.678Z,76
2024-05-09T21:22:11.802Z,76.5
2024-05-09T21:26:54.343Z,76.5
2024-05-09T21:31:36.301Z,77
2024-05-09T21:36:18.847Z,78
2024-05-09T21:41:00.008Z,78.5
2024-05-09T21:45:42.219Z,78.5
2024-05-09T21:50:24.557Z,79.5
2024-05-09T21:55:06.734Z,79.5
2024-05-09T21:59:49.185Z,79.5
2024-05-09T22:04:31.352Z,79.5
2024-05-09T22:09:13.764Z,79.5
2024-05-09T22:13:55.838Z,80.5
2024-05-09T22:18:38.251Z,79.5
2024-05-09T22:23:20.442Z,79
2024-05-09T22:28:02.827Z,79.5
2024-05-09T22:37:27.505Z,82
2024-05-09T22:42:08.593Z,83
2024-05-09T22:46:51.382Z,84.5
2024-05-09T22:51:33.165Z,85
2024-05-09T22:56:15.591Z,85.5
2024-05-09T23:00:57.676Z,86.5
2024-05-09T23:05:39.983Z,87
2024-05-09T23:10:22.272Z,86.5
2024-05-09T23:15:04.843Z,86.5
2024-05-09T23:24:29.095Z,87
2024-05-09T23:29:11.387Z,87.5
2024-05-09T23:33:53.868Z,87
2024-05-09T23:38:35.932Z,87.5
2024-05-09T23:43:17.270Z,88
2024-05-09T23:47:59.678Z,88
2024-05-09T23:52:41.797Z,88.5
2024-05-09T23:57:24.100Z,87.5
